createdAt,value
2024-02-23T00:00:47.452Z,75.31
2024-02-23T00:01:47.495Z,73.20
2024-02-23T00:02:47.489Z,73.17
2024-02-23T00:03:47.509Z,74.90
2024-02-23T00:04:47.477Z,75.29
2024-02-23T00:05:47.448Z,76.39
2024-02-23T00:06:47.475Z,72.43
2024-02-23T00:07:47.431Z,75.22
2024-02-23T00:08:47.495Z,74.82
2024-02-23T00:09:47.421Z,75.31
2024-02-23T00:10:47.571Z,74.84
2024-02-23T00:11:47.473Z,73.53
2024-02-23T00:12:47.393Z,73.01
2024-02-23T00:13:47.416Z,74.96
2024-02-23T00:14:47.388Z,74.32
2024-02-23T00:15:47.427Z,74.82
2024-02-23T00:16:47.444Z,74.20
2024-02-23T00:17:47.461Z,73.47
2024-02-23T00:18:47.858Z,72.62
2024-02-23T00:19:47.442Z,71.83
2024-02-23T00:20:47.405Z,72.81
2024-02-23T00:21:47.403Z,71.04
2024-02-23T00:22:47.506Z,74.20
2024-02-23T00:23:47.423Z,75.64
2024-02-23T00:24:47.432Z,72.62
2024-02-23T00:25:47.484Z,71.93
2024-02-23T00:26:47.429Z,72.17
2024-02-23T00:27:47.440Z,72.75
2024-02-23T00:28:47.476Z,72.71
2024-02-23T00:29:47.448Z,72.30
2024-02-23T00:30:47.474Z,69.28
2024-02-23T00:31:47.460Z,72.54
2024-02-23T00:32:47.433Z,72.75
2024-02-23T00:33:47.417Z,73.19
2024-02-23T00:34:47.462Z,72.72
2024-02-23T00:35:47.374Z,71.23
2024-02-23T00:36:47.370Z,71.63
2024-02-23T00:37:47.384Z,72.07
2024-02-23T00:38:47.466Z,70.83
2024-02-23T00:39:47.438Z,71.58
2024-02-23T00:40:47.413Z,70.55
2024-02-23T00:41:47.363Z,70.73
2024-02-23T00:42:47.393Z,69.84
2024-02-23T00:43:47.437Z,72.68
2024-02-23T00:44:47.399Z,69.88
2024-02-23T00:45:47.374Z,71.53
2024-02-23T00:46:47.423Z,71.29
2024-02-23T00:47:47.447Z,69.61
2024-02-23T00:48:47.464Z,71.75
2024-02-23T00:49:47.420Z,70.93
2024-02-23T00:50:47.400Z,70.94
2024-02-23T00:51:47.380Z,71.24
2024-02-23T00:52:47.449Z,71.15
2024-02-23T00:53:47.430Z,71.65
2024-02-23T00:54:47.405Z,71.21
2024-02-23T00:55:47.551Z,72.46
2024-02-23T00:56:51.287Z,70.57
2024-02-23T00:57:48.460Z,70.58
2024-02-23T00:58:47.869Z,70.72
2024-02-23T00:59:47.304Z,69.76
2024-02-23T01:00:47.282Z,69.05
2024-02-23T01:01:47.305Z,71.40
2024-02-23T01:02:47.184Z,71.45
2024-02-23T01:03:47.207Z,69.51
2024-02-23T01:04:47.107Z,69.13
2024-02-23T01:05:47.173Z,70.08
2024-02-23T01:06:47.037Z,71.51
2024-02-23T01:07:46.964Z,70.64
2024-02-23T01:08:47.300Z,70.62
2024-02-23T01:09:46.928Z,72.60
2024-02-23T01:10:46.941Z,69.73
2024-02-23T01:11:47.004Z,71.50
2024-02-23T01:12:46.970Z,71.65
2024-02-23T01:13:46.950Z,70.33
2024-02-23T01:14:46.908Z,71.38
2024-02-23T01:15:46.919Z,71.13
2024-02-23T01:16:46.931Z,71.52
2024-02-23T01:17:46.937Z,70.60
2024-02-23T01:18:46.949Z,67.35
2024-02-23T01:19:46.963Z,68.57
2024-02-23T01:20:46.903Z,70.05
2024-02-23T01:21:46.929Z,69.79
2024-02-23T01:22:47.000Z,71.07
2024-02-23T01:23:46.927Z,70.36
2024-02-23T01:24:46.909Z,68.74
2024-02-23T01:25:46.976Z,69.59
2024-02-23T01:26:46.917Z,71.54
2024-02-23T01:27:46.889Z,67.81
2024-02-23T01:28:47.036Z,68.01
2024-02-23T01:29:46.877Z,66.62
2024-02-23T01:30:46.867Z,68.66
2024-02-23T01:31:46.935Z,68.39
2024-02-23T01:32:47.022Z,68.94
2024-02-23T01:33:46.943Z,69.67
2024-02-23T01:34:46.888Z,65.31
2024-02-23T01:35:46.913Z,67.73
2024-02-23T01:36:46.874Z,68.80
2024-02-23T01:37:46.842Z,69.39
2024-02-23T01:38:47.387Z,67.43
2024-02-23T01:39:46.826Z,68.55
2024-02-23T01:40:46.830Z,68.31
2024-02-23T01:41:46.834Z,67.59
2024-02-23T01:42:46.806Z,68.20
2024-02-23T01:43:46.839Z,69.43
2024-02-23T01:44:46.881Z,68.74
2024-02-23T01:45:46.908Z,68.13
2024-02-23T01:46:47.364Z,68.70
2024-02-23T01:47:46.840Z,67.03
2024-02-23T01:48:46.944Z,67.38
2024-02-23T01:49:46.846Z,67.89
2024-02-23T01:50:46.779Z,68.69
2024-02-23T01:51:46.817Z,68.69
2024-02-23T01:52:46.770Z,67.32
2024-02-23T01:53:46.802Z,68.24
2024-02-23T01:54:46.792Z,68.35
2024-02-23T01:55:46.779Z,67.24
2024-02-23T01:56:46.747Z,67.20
2024-02-23T01:57:50.345Z,67.54
2024-02-23T01:58:46.730Z,67.59
2024-02-23T01:59:46.682Z,67.11
2024-02-23T02:00:46.684Z,67.62
2024-02-23T02:01:46.745Z,67.80
2024-02-23T02:02:46.583Z,67.05
2024-02-23T02:03:46.907Z,67.25
2024-02-23T02:04:46.503Z,68.43
2024-02-23T02:05:46.494Z,69.11
2024-02-23T02:06:46.511Z,66.95
2024-02-23T02:07:46.411Z,67.61
2024-02-23T02:08:46.381Z,65.62
2024-02-23T02:09:46.308Z,67.08
2024-02-23T02:10:46.380Z,67.33
2024-02-23T02:11:46.361Z,67.52
2024-02-23T02:12:46.225Z,67.19
2024-02-23T02:13:46.296Z,63.58
2024-02-23T02:14:46.155Z,67.15
2024-02-23T02:15:46.115Z,67.15
2024-02-23T02:16:46.208Z,67.82
2024-02-23T02:17:46.179Z,66.03
2024-02-23T02:18:46.367Z,64.71
2024-02-23T02:19:46.006Z,65.64
2024-02-23T02:20:45.929Z,65.93
2024-02-23T02:21:45.898Z,66.87
2024-02-23T02:22:45.847Z,65.25
2024-02-23T02:23:45.832Z,67.14
2024-02-23T02:24:46.334Z,65.33
2024-02-23T02:25:45.698Z,65.04
2024-02-23T02:26:45.673Z,64.78
2024-02-23T02:27:45.621Z,64.41
2024-02-23T02:28:45.641Z,65.21
2024-02-23T02:29:45.586Z,62.16
2024-02-23T02:30:45.534Z,64.45
2024-02-23T02:31:45.500Z,65.48
2024-02-23T02:32:45.547Z,63.91
2024-02-23T02:33:45.498Z,66.54
2024-02-23T02:34:45.341Z,63.54
2024-02-23T02:35:45.331Z,64.16
2024-02-23T02:36:45.317Z,62.83
2024-02-23T02:37:45.327Z,64.42
2024-02-23T02:38:45.326Z,63.95
2024-02-23T02:39:45.846Z,65.64
2024-02-23T02:40:45.325Z,64.54
2024-02-23T02:41:45.359Z,64.52
2024-02-23T02:42:45.370Z,64.99
2024-02-23T02:43:45.376Z,63.08
2024-02-23T02:44:45.373Z,63.18
2024-02-23T02:45:45.334Z,64.53
2024-02-23T02:46:45.333Z,64.43
2024-02-23T02:47:45.395Z,61.22
2024-02-23T02:48:45.461Z,64.90
2024-02-23T02:49:45.382Z,65.60
2024-02-23T02:50:45.369Z,62.63
2024-02-23T02:51:45.445Z,61.78
2024-02-23T02:52:45.399Z,61.59
2024-02-23T02:53:45.889Z,63.10
2024-02-23T02:54:45.430Z,63.90
2024-02-23T02:55:45.415Z,63.51
2024-02-23T02:56:45.451Z,61.25
2024-02-23T02:57:45.431Z,63.11
2024-02-23T02:58:45.988Z,63.06
2024-02-23T02:59:45.456Z,61.79
2024-02-23T03:00:45.471Z,64.15
2024-02-23T03:01:45.445Z,62.40
2024-02-23T03:02:45.445Z,63.65
2024-02-23T03:03:45.472Z,63.10
2024-02-23T03:04:45.445Z,61.61
2024-02-23T03:05:45.518Z,61.70
2024-02-23T03:06:45.550Z,62.49
2024-02-23T03:07:45.463Z,62.91
2024-02-23T03:08:45.474Z,61.36
2024-02-23T03:09:45.500Z,61.33
2024-02-23T03:10:45.474Z,60.82
2024-02-23T03:11:45.579Z,60.14
2024-02-23T03:12:45.446Z,61.12
2024-02-23T03:13:45.486Z,61.03
2024-02-23T03:14:45.536Z,61.81
2024-02-23T03:15:45.533Z,60.49
2024-02-23T03:16:45.505Z,60.80
2024-02-23T03:17:45.627Z,61.97
2024-02-23T03:18:45.865Z,62.20
2024-02-23T03:19:45.580Z,62.47
2024-02-23T03:20:45.555Z,61.49
2024-02-23T03:21:45.500Z,60.67
2024-02-23T03:22:45.556Z,60.75
2024-02-23T03:23:45.522Z,60.07
2024-02-23T03:24:45.606Z,58.71
2024-02-23T03:25:45.499Z,61.87
2024-02-23T03:26:45.652Z,61.39
2024-02-23T03:27:45.589Z,62.34
2024-02-23T03:28:45.610Z,61.94
2024-02-23T03:29:45.548Z,60.84
2024-02-23T03:30:45.614Z,62.66
2024-02-23T03:31:45.670Z,60.57
2024-02-23T03:32:45.633Z,61.75
2024-02-23T03:33:45.716Z,59.25
2024-02-23T03:34:45.597Z,62.21
2024-02-23T03:35:45.647Z,61.05
2024-02-23T03:36:45.606Z,61.48
2024-02-23T03:37:45.666Z,60.52
2024-02-23T03:38:45.733Z,61.07
2024-02-23T03:39:45.669Z,62.18
2024-02-23T03:40:45.681Z,59.03
2024-02-23T03:41:45.684Z,60.03
2024-02-23T03:42:45.741Z,59.94
2024-02-23T03:43:45.758Z,58.82
2024-02-23T03:44:45.667Z,61.62
2024-02-23T03:45:45.700Z,59.98
2024-02-23T03:46:45.718Z,59.36
2024-02-23T03:47:45.934Z,61.72
2024-02-23T03:48:45.928Z,60.03
2024-02-23T03:49:45.759Z,60.40
2024-02-23T03:50:45.778Z,59.45
2024-02-23T03:51:45.793Z,62.13
2024-02-23T03:52:45.854Z,58.46
2024-02-23T03:53:45.880Z,60.77
2024-02-23T03:54:45.806Z,60.09
2024-02-23T03:55:45.813Z,60.20
2024-02-23T03:56:45.829Z,60.62
2024-02-23T03:57:47.585Z,60.39
2024-02-23T03:58:45.892Z,59.18
2024-02-23T03:59:45.801Z,61.16
2024-02-23T04:00:45.854Z,60.97
2024-02-23T04:01:45.809Z,60.79
2024-02-23T04:02:45.829Z,59.86
2024-02-23T04:03:45.859Z,61.27
2024-02-23T04:04:45.833Z,59.51
2024-02-23T04:05:45.826Z,58.26
2024-02-23T04:06:45.897Z,61.19
2024-02-23T04:07:45.863Z,57.94
2024-02-23T04:08:48.296Z,58.31
2024-02-23T04:09:45.808Z,61.38
2024-02-23T04:10:45.816Z,59.15
2024-02-23T04:11:45.876Z,56.23
2024-02-23T04:12:45.685Z,60.84
2024-02-23T04:13:45.745Z,59.56
2024-02-23T04:14:45.696Z,59.25
2024-02-23T04:15:45.597Z,60.74
2024-02-23T04:16:45.552Z,60.37
2024-02-23T04:17:45.545Z,58.00
2024-02-23T04:18:52.763Z,50.00
2024-02-23T04:19:52.742Z,50.00
2024-02-23T04:20:52.644Z,50.00
2024-02-23T04:21:52.622Z,50.00
2024-02-23T04:22:52.589Z,50.00
2024-02-23T04:23:52.575Z,52.55
2024-02-23T04:24:52.578Z,52.36
2024-02-23T04:25:52.555Z,52.75
2024-02-23T04:26:52.536Z,50.83
2024-02-23T04:27:52.488Z,50.29
2024-02-23T04:28:52.879Z,52.62
2024-02-23T04:29:52.464Z,52.01
2024-02-23T04:30:52.413Z,50.11
2024-02-23T04:31:59.578Z,50.00
2024-02-23T04:32:59.624Z,50.00
2024-02-23T04:33:59.753Z,50.00
2024-02-23T04:34:59.629Z,50.00
2024-02-23T04:35:59.622Z,50.00
2024-02-23T04:36:59.626Z,50.00
2024-02-23T04:37:59.659Z,51.93
2024-02-23T04:38:59.645Z,50.86
2024-02-23T04:39:59.678Z,51.09
2024-02-23T04:40:59.742Z,52.54
2024-02-23T04:41:59.660Z,51.70
2024-02-23T04:42:59.652Z,51.22
2024-02-23T04:44:02.241Z,53.42
2024-02-23T04:44:59.667Z,53.43
2024-02-23T04:45:59.668Z,53.48
2024-02-23T04:46:59.724Z,53.24
2024-02-23T04:47:59.688Z,53.46
2024-02-23T04:48:59.778Z,52.10
2024-02-23T04:49:59.698Z,52.76
2024-02-23T04:50:59.665Z,52.13
2024-02-23T04:51:59.669Z,51.79
2024-02-23T04:52:59.684Z,50.00
2024-02-23T04:53:59.690Z,53.47
2024-02-23T04:54:59.641Z,51.33
2024-02-23T04:55:59.676Z,53.71
2024-02-23T04:56:59.686Z,51.59
2024-02-23T04:57:59.678Z,55.64
2024-02-23T04:58:59.698Z,54.05
2024-02-23T04:59:59.699Z,51.50
2024-02-23T05:00:59.712Z,53.22
2024-02-23T05:01:59.795Z,53.51
2024-02-23T05:02:59.705Z,52.27
2024-02-23T05:03:59.742Z,54.47
2024-02-23T05:04:59.727Z,53.00
2024-02-23T05:05:59.705Z,54.09
2024-02-23T05:06:59.717Z,54.16
2024-02-23T05:07:59.754Z,55.38
2024-02-23T05:08:59.687Z,52.44
2024-02-23T05:09:59.672Z,53.68
2024-02-23T05:10:59.742Z,51.78
2024-02-23T05:11:59.747Z,54.55
2024-02-23T05:12:59.654Z,53.03
2024-02-23T05:13:59.729Z,52.25
2024-02-23T05:14:59.691Z,52.31
2024-02-23T05:15:59.766Z,51.40
2024-02-23T05:16:59.705Z,51.95
2024-02-23T05:17:59.711Z,52.29
2024-02-23T05:18:59.761Z,52.75
2024-02-23T05:19:59.757Z,53.49
2024-02-23T05:20:59.723Z,54.28
2024-02-23T05:21:59.711Z,53.30
2024-02-23T05:22:59.735Z,53.48
2024-02-23T05:23:59.702Z,50.53
2024-02-23T05:24:59.719Z,52.11
2024-02-23T05:25:59.721Z,52.98
2024-02-23T05:26:59.700Z,53.36
2024-02-23T05:27:59.713Z,53.64
2024-02-23T05:28:59.785Z,52.05
2024-02-23T05:29:59.713Z,52.60
2024-02-23T05:30:59.732Z,55.40
2024-02-23T05:31:59.704Z,54.06
2024-02-23T05:32:59.808Z,54.25
2024-02-23T05:33:59.760Z,54.76
2024-02-23T05:34:59.793Z,53.26
2024-02-23T05:35:59.764Z,54.00
2024-02-23T05:36:59.742Z,53.46
2024-02-23T05:37:59.747Z,53.49
2024-02-23T05:39:00.244Z,52.78
2024-02-23T05:39:59.758Z,54.00
2024-02-23T05:40:59.774Z,54.02
2024-02-23T05:41:59.733Z,52.52
2024-02-23T05:42:59.760Z,53.39
2024-02-23T05:43:59.809Z,54.80
2024-02-23T05:44:59.765Z,53.49
2024-02-23T05:45:59.776Z,54.50
2024-02-23T05:46:59.905Z,55.58
2024-02-23T05:47:59.844Z,54.11
2024-02-23T05:48:59.896Z,50.68
2024-02-23T05:49:59.761Z,52.88
2024-02-23T05:50:59.823Z,50.69
2024-02-23T05:51:59.776Z,54.40
2024-02-23T05:52:59.848Z,54.51
2024-02-23T05:54:00.240Z,55.45
2024-02-23T05:54:59.798Z,53.68
2024-02-23T05:55:59.836Z,54.23
2024-02-23T05:56:59.793Z,55.54
2024-02-23T05:57:59.830Z,55.40
2024-02-23T05:58:59.844Z,52.96
2024-02-23T06:00:00.341Z,54.29
2024-02-23T06:00:59.882Z,53.08
2024-02-23T06:01:59.859Z,53.49
2024-02-23T06:02:59.833Z,54.44
2024-02-23T06:03:59.842Z,54.01
2024-02-23T06:04:59.987Z,54.63
2024-02-23T06:05:59.923Z,53.07
2024-02-23T06:07:00.027Z,54.61
2024-02-23T06:07:59.898Z,54.33
2024-02-23T06:08:59.881Z,55.90
2024-02-23T06:09:59.879Z,54.72
2024-02-23T06:10:59.993Z,55.27
2024-02-23T06:12:00.073Z,54.49
2024-02-23T06:13:02.274Z,54.71
2024-02-23T06:13:59.922Z,54.31
2024-02-23T06:14:59.918Z,56.77
2024-02-23T06:15:59.933Z,55.12
2024-02-23T06:16:59.963Z,54.12
2024-02-23T06:18:00.089Z,55.42
2024-02-23T06:18:59.975Z,56.40
2024-02-23T06:20:00.004Z,54.66
2024-02-23T06:20:59.954Z,55.56
2024-02-23T06:21:59.960Z,53.86
2024-02-23T06:22:59.975Z,55.47
2024-02-23T06:23:59.924Z,55.06
2024-02-23T06:24:59.993Z,53.20
2024-02-23T06:26:00.005Z,54.12
2024-02-23T06:27:00.000Z,54.65
2024-02-23T06:27:59.972Z,53.07
2024-02-23T06:29:00.030Z,53.94
2024-02-23T06:30:00.031Z,55.42
2024-02-23T06:30:59.989Z,54.78
2024-02-23T06:32:00.002Z,53.85
2024-02-23T06:33:00.104Z,54.89
2024-02-23T06:34:00.093Z,54.67
2024-02-23T06:35:01.030Z,53.68
2024-02-23T06:36:00.031Z,53.50
2024-02-23T06:37:00.080Z,52.91
2024-02-23T06:38:00.122Z,54.81
2024-02-23T06:39:00.078Z,55.04
2024-02-23T06:40:00.248Z,53.33
2024-02-23T06:41:00.168Z,52.75
2024-02-23T06:42:00.113Z,53.93
2024-02-23T06:43:00.096Z,51.66
2024-02-23T06:44:00.170Z,53.66
2024-02-23T06:45:00.183Z,53.97
2024-02-23T06:46:00.134Z,54.67
2024-02-23T06:47:00.204Z,51.85
2024-02-23T06:48:00.188Z,54.10
2024-02-23T06:49:00.387Z,52.29
2024-02-23T06:50:00.265Z,53.79
2024-02-23T06:51:00.174Z,53.22
2024-02-23T06:52:00.236Z,53.53
2024-02-23T06:53:00.252Z,52.88
2024-02-23T06:54:00.191Z,54.26
2024-02-23T06:55:00.249Z,51.90
2024-02-23T06:56:00.615Z,51.05
2024-02-23T06:57:00.263Z,53.86
2024-02-23T06:58:00.273Z,53.73
2024-02-23T06:59:00.440Z,55.09
2024-02-23T07:00:00.357Z,53.17
2024-02-23T07:01:00.445Z,55.05
2024-02-23T07:02:00.524Z,52.51
2024-02-23T07:03:00.544Z,54.99
2024-02-23T07:04:00.600Z,53.37
2024-02-23T07:05:00.708Z,52.42
2024-02-23T07:06:00.823Z,52.67
2024-02-23T07:07:00.771Z,54.09
2024-02-23T07:08:00.978Z,54.19
2024-02-23T07:09:00.854Z,54.79
2024-02-23T07:10:00.920Z,54.01
2024-02-23T07:11:01.006Z,53.25
2024-02-23T07:12:01.130Z,53.97
2024-02-23T07:13:01.066Z,52.74
2024-02-23T07:14:01.117Z,53.10
2024-02-23T07:15:01.132Z,55.13
2024-02-23T07:16:01.221Z,56.17
2024-02-23T07:17:01.323Z,56.77
2024-02-23T07:18:01.323Z,55.46
2024-02-23T07:19:01.417Z,55.96
2024-02-23T07:20:01.500Z,56.66
2024-02-23T07:21:01.524Z,56.02
2024-02-23T07:22:01.575Z,55.76
2024-02-23T07:23:01.634Z,55.75
2024-02-23T07:24:01.643Z,53.91
2024-02-23T07:25:01.738Z,54.93
2024-02-23T07:26:01.886Z,55.82
2024-02-23T07:27:01.850Z,54.91
2024-02-23T07:28:01.897Z,58.01
2024-02-23T07:29:02.009Z,54.65
2024-02-23T07:30:02.059Z,55.08
2024-02-23T07:31:02.069Z,58.75
2024-02-23T07:32:02.216Z,56.76
2024-02-23T07:33:02.202Z,57.20
2024-02-23T07:34:02.543Z,56.46
2024-02-23T07:35:02.396Z,59.36
2024-02-23T07:36:02.404Z,57.44
2024-02-23T07:37:02.442Z,58.95
2024-02-23T07:38:02.547Z,58.11
2024-02-23T07:39:02.561Z,59.31
2024-02-23T07:40:02.637Z,57.65
2024-02-23T07:41:02.720Z,56.10
2024-02-23T07:42:02.758Z,58.81
2024-02-23T07:43:02.857Z,58.92
2024-02-23T07:44:02.983Z,58.85
2024-02-23T07:45:03.259Z,59.66
2024-02-23T07:46:03.057Z,59.01
2024-02-23T07:47:03.092Z,58.01
2024-02-23T07:48:03.298Z,59.52
2024-02-23T07:49:03.343Z,57.04
2024-02-23T07:50:03.418Z,57.60
2024-02-23T07:51:03.431Z,58.83
2024-02-23T07:52:03.481Z,59.22
2024-02-23T07:53:03.560Z,62.38
2024-02-23T07:54:03.593Z,60.98
2024-02-23T07:55:03.881Z,59.39
2024-02-23T07:56:03.938Z,60.44
2024-02-23T07:57:03.818Z,61.03
2024-02-23T07:58:03.890Z,61.64
2024-02-23T07:59:04.019Z,60.18
2024-02-23T08:00:04.303Z,59.10
2024-02-23T08:01:04.360Z,60.58
2024-02-23T08:02:04.190Z,62.44
2024-02-23T08:03:04.208Z,62.93
2024-02-23T08:04:04.282Z,62.46
2024-02-23T08:05:05.050Z,62.08
2024-02-23T08:06:04.573Z,60.32
2024-02-23T08:07:04.516Z,63.58
2024-02-23T08:08:04.663Z,64.26
2024-02-23T08:09:04.640Z,61.34
2024-02-23T08:10:04.798Z,64.42
2024-02-23T08:11:04.858Z,63.76
2024-02-23T08:12:04.976Z,65.65
2024-02-23T08:13:04.952Z,64.83
2024-02-23T08:14:05.063Z,64.17
2024-02-23T08:15:05.266Z,65.58
2024-02-23T08:16:05.160Z,63.64
2024-02-23T08:17:05.231Z,65.88
2024-02-23T08:18:05.373Z,65.42
2024-02-23T08:19:05.409Z,67.12
2024-02-23T08:20:05.913Z,65.38
2024-02-23T08:21:05.516Z,65.36
2024-02-23T08:22:05.582Z,67.89
2024-02-23T08:23:05.712Z,67.37
2024-02-23T08:24:05.740Z,66.29
2024-02-23T08:25:05.850Z,68.12
2024-02-23T08:26:05.970Z,69.16
2024-02-23T08:27:05.974Z,69.61
2024-02-23T08:28:06.075Z,67.63
2024-02-23T08:29:06.263Z,68.13
2024-02-23T08:30:06.288Z,68.03
2024-02-23T08:31:06.255Z,69.57
2024-02-23T08:32:06.417Z,70.00
2024-02-23T08:33:06.447Z,67.74
2024-02-23T08:34:06.606Z,72.06
2024-02-23T08:35:06.841Z,70.08
2024-02-23T08:36:06.723Z,72.26
2024-02-23T08:37:06.725Z,70.63
2024-02-23T08:38:06.901Z,72.32
2024-02-23T08:39:06.928Z,71.61
2024-02-23T08:40:07.335Z,70.21
2024-02-23T08:41:07.102Z,72.32
2024-02-23T08:42:07.165Z,70.50
2024-02-23T08:43:07.227Z,70.64
2024-02-23T08:44:07.300Z,72.91
2024-02-23T08:45:07.383Z,73.53
2024-02-23T08:46:10.021Z,73.62
2024-02-23T08:47:07.478Z,72.14
2024-02-23T08:48:07.499Z,73.43
2024-02-23T08:49:07.537Z,71.09
2024-02-23T08:50:07.515Z,73.50
2024-02-23T08:51:07.477Z,74.48
2024-02-23T08:52:07.492Z,73.11
2024-02-23T08:53:07.517Z,73.07
2024-02-23T08:54:07.511Z,73.09
2024-02-23T08:55:07.804Z,71.82
2024-02-23T08:56:07.545Z,70.12
2024-02-23T08:57:07.569Z,72.14
2024-02-23T08:58:07.572Z,70.07
2024-02-23T08:59:07.606Z,69.53
2024-02-23T09:00:07.815Z,72.28
2024-02-23T09:01:07.663Z,73.46
2024-02-23T09:02:07.680Z,76.83
2024-02-23T09:03:07.665Z,76.37
2024-02-23T09:04:07.733Z,78.42
2024-02-23T09:05:07.803Z,76.93
2024-02-23T09:06:07.830Z,78.51
2024-02-23T09:07:07.758Z,80.52
2024-02-23T09:08:07.796Z,81.34
2024-02-23T09:09:07.796Z,81.55
2024-02-23T09:10:08.311Z,82.19
2024-02-23T09:11:07.954Z,84.47
2024-02-23T09:12:07.903Z,84.41
2024-02-23T09:13:07.881Z,84.97
2024-02-23T09:14:08.038Z,89.31
2024-02-23T09:15:07.933Z,86.96
2024-02-23T09:16:07.971Z,86.07
2024-02-23T09:17:08.054Z,89.26
2024-02-23T09:18:08.135Z,89.62
2024-02-23T09:19:08.152Z,87.68
2024-02-23T09:20:08.402Z,86.52
2024-02-23T09:21:08.136Z,87.44
2024-02-23T09:22:08.194Z,87.12
2024-02-23T09:23:08.318Z,87.59
2024-02-23T09:24:08.257Z,87.15
2024-02-23T09:25:08.329Z,88.31
2024-02-23T09:26:08.336Z,88.15
2024-02-23T09:27:08.326Z,86.81
2024-02-23T09:28:08.313Z,90.42
2024-02-23T09:29:08.424Z,90.36
2024-02-23T09:30:08.373Z,89.45
2024-02-23T09:31:08.377Z,90.08
2024-02-23T09:32:08.408Z,87.47
2024-02-23T09:33:08.476Z,90.10
2024-02-23T09:34:08.527Z,89.28
2024-02-23T09:35:08.860Z,91.54
2024-02-23T09:36:08.450Z,90.22
2024-02-23T09:37:08.463Z,94.15
2024-02-23T09:38:08.503Z,93.04
2024-02-23T09:39:08.467Z,91.49
2024-02-23T09:40:08.846Z,94.50
2024-02-23T09:41:08.535Z,93.91
2024-02-23T09:42:08.511Z,95.00
2024-02-23T09:43:08.559Z,97.47
2024-02-23T09:44:08.546Z,99.84
2024-02-23T09:45:08.552Z,101.02
2024-02-23T09:46:08.552Z,103.47
2024-02-23T09:47:08.575Z,101.94
2024-02-23T09:48:08.737Z,102.61
2024-02-23T09:49:08.662Z,108.94
2024-02-23T09:50:08.670Z,105.43
2024-02-23T09:51:08.708Z,104.74
2024-02-23T09:52:08.771Z,106.13
2024-02-23T09:53:08.785Z,110.56
2024-02-23T09:54:08.825Z,107.43
2024-02-23T09:55:08.886Z,110.17
2024-02-23T09:56:08.988Z,109.07
2024-02-23T09:57:09.020Z,113.23
2024-02-23T09:58:09.099Z,111.80
2024-02-23T09:59:09.188Z,111.64
2024-02-23T10:00:09.309Z,112.92
2024-02-23T10:01:09.188Z,112.54
2024-02-23T10:02:09.227Z,112.11
2024-02-23T10:03:09.215Z,111.83
2024-02-23T10:04:09.238Z,112.72
2024-02-23T10:05:09.350Z,114.57
2024-02-23T10:06:09.409Z,112.26
2024-02-23T10:07:09.537Z,111.21
2024-02-23T10:08:09.590Z,111.66
2024-02-23T10:09:09.563Z,112.25
2024-02-23T10:10:09.839Z,111.64
2024-02-23T10:11:09.806Z,112.02
2024-02-23T10:12:09.781Z,115.11
2024-02-23T10:13:09.771Z,113.64
2024-02-23T10:14:09.884Z,116.04
2024-02-23T10:15:10.355Z,115.69
2024-02-23T10:16:15.207Z,117.03
2024-02-23T10:17:10.950Z,116.65
2024-02-23T10:18:09.975Z,115.18
2024-02-23T10:19:10.037Z,115.32
2024-02-23T10:20:10.361Z,114.99
2024-02-23T10:21:10.050Z,115.46
2024-02-23T10:22:10.002Z,113.34
2024-02-23T10:23:10.076Z,114.39
2024-02-23T10:24:10.059Z,113.57
2024-02-23T10:25:10.072Z,112.10
2024-02-23T10:26:10.106Z,113.62
2024-02-23T10:27:10.075Z,113.34
2024-02-23T10:28:10.089Z,115.60
2024-02-23T10:29:12.018Z,117.79
2024-02-23T10:30:10.296Z,116.74
2024-02-23T10:31:12.620Z,119.20
2024-02-23T10:32:10.212Z,119.30
2024-02-23T10:33:10.230Z,119.49
2024-02-23T10:34:10.220Z,119.75
2024-02-23T10:35:10.394Z,120.92
2024-02-23T10:36:10.239Z,119.25
2024-02-23T10:37:10.254Z,120.41
2024-02-23T10:38:10.334Z,120.65
2024-02-23T10:39:10.343Z,121.37
2024-02-23T10:40:10.846Z,123.24
2024-02-23T10:41:10.447Z,124.15
2024-02-23T10:42:10.368Z,122.12
2024-02-23T10:43:10.363Z,125.80
2024-02-23T10:44:10.442Z,125.51
2024-02-23T10:45:10.821Z,128.76
2024-02-23T10:46:10.401Z,129.18
2024-02-23T10:47:10.461Z,131.37
2024-02-23T10:48:10.514Z,137.37
2024-02-23T10:49:10.495Z,139.91
2024-02-23T10:50:10.485Z,144.33
2024-02-23T10:51:10.462Z,145.75
2024-02-23T10:52:10.476Z,144.80
2024-02-23T10:53:10.513Z,149.16
2024-02-23T10:54:10.457Z,146.35
2024-02-23T10:55:10.861Z,147.28
2024-02-23T10:56:10.551Z,144.82
2024-02-23T10:57:10.534Z,147.96
2024-02-23T10:58:10.511Z,146.72
2024-02-23T10:59:10.539Z,148.61
2024-02-23T11:00:10.827Z,148.68
2024-02-23T11:01:10.605Z,152.02
2024-02-23T11:02:10.544Z,150.42
2024-02-23T11:03:10.558Z,145.95
2024-02-23T11:04:10.573Z,145.55
2024-02-23T11:05:11.139Z,147.34
2024-02-23T11:06:10.666Z,148.20
2024-02-23T11:07:10.605Z,145.05
2024-02-23T11:08:10.685Z,146.82
2024-02-23T11:09:10.611Z,151.70
2024-02-23T11:10:10.869Z,149.42
2024-02-23T11:11:10.857Z,148.75
2024-02-23T11:12:10.899Z,151.47
2024-02-23T11:13:10.843Z,151.54
2024-02-23T11:14:10.990Z,153.40
2024-02-23T11:15:11.326Z,149.35
2024-02-23T11:16:11.054Z,151.00
2024-02-23T11:17:11.189Z,152.32
2024-02-23T11:18:11.257Z,154.16
2024-02-23T11:19:11.272Z,155.26
2024-02-23T11:20:11.547Z,155.37
2024-02-23T11:21:11.526Z,153.54
2024-02-23T11:22:16.788Z,152.33
2024-02-23T11:23:12.497Z,152.39
2024-02-23T11:24:11.465Z,152.52
2024-02-23T11:25:11.950Z,152.74
2024-02-23T11:26:11.517Z,152.53
2024-02-23T11:27:11.481Z,150.91
2024-02-23T11:28:11.550Z,150.82
2024-02-23T11:29:11.540Z,151.54
2024-02-23T11:30:11.882Z,153.38
2024-02-23T11:31:11.573Z,151.89
2024-02-23T11:32:11.669Z,150.14
2024-02-23T11:33:11.730Z,153.94
2024-02-23T11:34:11.808Z,152.00
2024-02-23T11:35:11.906Z,151.13
2024-02-23T11:36:11.753Z,150.95
2024-02-23T11:37:11.720Z,149.39
2024-02-23T11:38:11.803Z,151.61
2024-02-23T11:39:11.831Z,149.08
2024-02-23T11:40:12.368Z,147.65
2024-02-23T11:41:12.012Z,146.72
2024-02-23T11:42:12.075Z,148.08
2024-02-23T11:43:12.162Z,148.20
2024-02-23T11:44:12.248Z,149.72
2024-02-23T11:45:12.277Z,150.65
2024-02-23T11:46:12.344Z,149.45
2024-02-23T11:47:12.423Z,151.28
2024-02-23T11:48:12.602Z,152.05
2024-02-23T11:49:12.586Z,151.28
2024-02-23T11:50:12.965Z,148.70
2024-02-23T11:51:12.604Z,147.57
2024-02-23T11:52:12.628Z,145.85
2024-02-23T11:53:12.691Z,143.04
2024-02-23T11:54:12.753Z,144.00
2024-02-23T11:55:12.853Z,142.83
2024-02-23T11:56:12.884Z,140.31
2024-02-23T11:57:12.844Z,141.49
2024-02-23T11:58:18.580Z,144.27
2024-02-23T11:59:13.894Z,144.36
2024-02-23T12:00:13.362Z,144.75
2024-02-23T12:01:12.948Z,145.99
2024-02-23T12:02:13.012Z,146.26
2024-02-23T12:03:12.892Z,147.55
2024-02-23T12:04:12.924Z,146.88
2024-02-23T12:05:13.469Z,144.70
2024-02-23T12:06:12.899Z,149.02
2024-02-23T12:07:12.915Z,145.04
2024-02-23T12:08:12.966Z,146.35
2024-02-23T12:09:12.883Z,149.05
2024-02-23T12:10:12.936Z,146.87
2024-02-23T12:11:13.111Z,145.74
2024-02-23T12:12:13.171Z,150.67
2024-02-23T12:13:12.915Z,149.38
2024-02-23T12:14:12.946Z,149.66
2024-02-23T12:15:13.403Z,151.29
2024-02-23T12:16:12.919Z,151.14
2024-02-23T12:17:12.954Z,153.26
2024-02-23T12:18:12.942Z,152.34
2024-02-23T12:19:12.905Z,153.45
2024-02-23T12:20:12.969Z,154.21
2024-02-23T12:21:13.032Z,156.17
2024-02-23T12:22:12.900Z,157.08
2024-02-23T12:23:12.934Z,157.25
2024-02-23T12:24:12.856Z,156.08
2024-02-23T12:25:12.864Z,156.62
2024-02-23T12:26:12.875Z,157.57
2024-02-23T12:27:12.826Z,158.70
2024-02-23T12:28:12.831Z,161.33
2024-02-23T12:29:12.858Z,159.86
2024-02-23T12:30:12.815Z,159.86
2024-02-23T12:31:12.817Z,160.95
2024-02-23T12:32:12.852Z,161.38
2024-02-23T12:33:12.947Z,162.46
2024-02-23T12:34:12.833Z,164.14
2024-02-23T12:35:13.021Z,161.65
2024-02-23T12:36:12.738Z,161.23
2024-02-23T12:37:12.781Z,164.71
2024-02-23T12:38:12.772Z,163.04
2024-02-23T12:39:12.731Z,163.48
2024-02-23T12:40:12.725Z,164.93
2024-02-23T12:41:12.883Z,166.25
2024-02-23T12:42:12.714Z,167.83
2024-02-23T12:43:12.684Z,168.60
2024-02-23T12:44:12.711Z,170.67
2024-02-23T12:45:12.692Z,167.50
2024-02-23T12:46:12.704Z,164.07
2024-02-23T12:47:12.687Z,168.88